Corral De Lorca, Argentina
Current Conditions -  °F | °C
As of 2:00 PM on Thursday 30 Oct 2014 (Local Time) from SAME Reporting Station
Clear Clear  
Wind Chill: 81°   Ceiling: Unl
Heat Index: 81°   Visibility: 6mi
Dew Point: 37°   Wind: 8mph
Humidity: 21%   Direction: 90°E
Pressure: 29.74"   Gusts: NA
Location:  34.7°S, 67.05°W
Report Text: SAME 301700Z 09007KT CAVOK 27/03 Q1007
Loading
Personal Weather Stations






























Interactive Weather Map
Tropical Storm Tracking
New forecast layout! Learn more

10-Day Weather Forecast

Advertisements
Track Severe Weather on mobile